Gravenhurst, Canada
Current Conditions -  °F | °C
As of 6:51 AM on Saturday 01 Nov 2014 (Local Time) from CYQA Reporting Station
Light Snow Light Snow  
Wind Chill: 22°   Ceiling: 2600
Heat Index: 30°   Visibility: 9mi
Dew Point: 28°   Wind: 9mph
Humidity: 93%   Direction: 350°N
Pressure: 30.17"   Gusts: NA
Location:  44.92°N, 79.37°W
Report Text: CYQA 011051Z AUTO 35008KT 9SM -SN BKN026 OVC055 M01/M02 A3017 RMK SLP228
Loading
Personal Weather Stations






























Interactive Weather Map
Tropical Storm Tracking
New forecast layout! Learn more

10-Day Weather Forecast

Advertisements
Track Severe Weather on mobile